Time;durP1;ratioP1;P1;durP2;ratioP2;P2;SDS_P1;SDS_P2;PMS_P1;PMS_P2;Temp;Humidity;BMP_temperature;BMP_pressure;BME280_temperature;BME280_humidity;BME280_pressure;Samples;Min_cycle;Max_cycle;Signal;HPM_P1;HPM_P2
2022/12/30 00:01:06;;;;;;;29.55;3.63;;;6.10;99.90;;;;;;5033572;28;20032;-79
2022/12/30 00:03:32;;;;;;;25.00;3.95;;;5.90;99.90;;;;;;5031464;28;20037;-81
2022/12/30 00:05:58;;;;;;;30.80;4.53;;;6.10;99.90;;;;;;5051439;28;20123;-82
2022/12/30 00:11:08;;;;;;;36.38;4.25;;;5.90;99.90;;;;;;5034403;28;20044;-80
2022/12/30 00:33:21;;;;;;;29.50;4.15;;;5.70;99.90;;;;;;5063865;28;20092;-82
2022/12/30 00:35:48;;;;;;;33.63;4.00;;;5.70;99.90;;;;;;5017201;28;20048;-79
2022/12/30 00:38:13;;;;;;;33.67;4.30;;;5.70;99.90;;;;;;5050892;28;20382;-78
2022/12/30 00:43:07;;;;;;;32.83;4.82;;;5.70;99.90;;;;;;5049064;28;20048;-82
2022/12/30 00:43:25;;;;;;;39.28;5.07;;;5.80;99.90;;;;;;5034783;28;20085;-78
2022/12/30 00:45:50;;;;;;;26.70;4.07;;;5.80;99.90;;;;;;5037387;28;20177;-80
2022/12/30 00:56:29;;;;;;;38.35;4.57;;;5.70;99.90;;;;;;5030683;28;20047;-76
2022/12/30 00:58:54;;;;;;;42.30;4.40;;;5.40;99.90;;;;;;5031570;28;20045;-77
2022/12/30 01:01:20;;;;;;;31.52;4.20;;;5.40;99.90;;;;;;5067036;28;20044;-80
2022/12/30 01:03:46;;;;;;;34.08;4.65;;;5.40;99.90;;;;;;5055463;28;20039;-82
2022/12/30 01:06:11;;;;;;;30.20;4.40;;;5.60;99.90;;;;;;5019866;28;20037;-84
2022/12/30 01:08:37;;;;;;;32.08;4.63;;;5.30;99.90;;;;;;5049143;28;20041;-82
2022/12/30 01:11:08;;;;;;;28.35;4.30;;;5.30;99.90;;;;;;5059137;28;20407;-78
2022/12/30 01:13:34;;;;;;;31.27;4.40;;;5.20;99.90;;;;;;5035781;28;20043;-81
2022/12/30 01:16:12;;;;;;;36.08;4.85;;;5.10;99.90;;;;;;5036512;28;20087;-83
2022/12/30 01:18:37;;;;;;;39.45;5.28;;;5.30;99.90;;;;;;5036348;28;20076;-83
2022/12/30 01:21:04;;;;;;;42.88;4.53;;;5.30;99.90;;;;;;5035579;28;20075;-82
2022/12/30 01:23:30;;;;;;;34.10;4.97;;;5.30;99.90;;;;;;5036795;28;20139;-80
2022/12/30 01:26:04;;;;;;;28.55;4.65;;;5.30;99.90;;;;;;5034527;28;20523;-80
2022/12/30 01:28:35;;;;;;;33.63;4.85;;;5.50;99.90;;;;;;5019432;28;20056;-82
2022/12/30 01:31:08;;;;;;;36.90;4.70;;;5.50;99.90;;;;;;5032538;28;20045;-82
2022/12/30 01:33:35;;;;;;;28.65;4.57;;;5.40;99.90;;;;;;5036070;28;20048;-81
2022/12/30 01:36:01;;;;;;;29.08;4.07;;;5.20;99.90;;;;;;5043293;28;20154;-80
2022/12/30 01:38:31;;;;;;;37.22;4.50;;;5.10;99.90;;;;;;5016164;28;20092;-81
2022/12/30 01:40:57;;;;;;;31.40;4.22;;;5.30;99.90;;;;;;5005232;28;20093;-79
2022/12/30 01:43:47;;;;;;;43.08;5.00;;;5.20;99.90;;;;;;5031602;28;20060;-80
2022/12/30 01:46:24;;;;;;;28.08;4.00;;;5.30;99.90;;;;;;5045983;28;20032;-82
2022/12/30 01:48:51;;;;;;;35.80;4.72;;;5.30;99.90;;;;;;5016873;28;20396;-80
2022/12/30 01:51:26;;;;;;;34.35;4.05;;;5.60;99.90;;;;;;5023475;28;20338;-78
2022/12/30 01:53:54;;;;;;;30.83;4.32;;;5.30;99.90;;;;;;5041979;28;20333;-80
2022/12/30 01:56:34;;;;;;;33.58;4.57;;;5.40;99.90;;;;;;5044119;28;20052;-79
2022/12/30 01:59:14;;;;;;;31.02;4.00;;;5.40;99.90;;;;;;5018748;28;20049;-78
2022/12/30 02:01:41;;;;;;;33.72;4.45;;;5.50;99.90;;;;;;5020580;28;20391;-80
2022/12/30 02:04:20;;;;;;;41.30;4.18;;;5.70;99.90;;;;;;5056813;28;20388;-78
2022/12/30 02:06:54;;;;;;;27.27;3.90;;;5.40;99.90;;;;;;5053184;28;20042;-81
2022/12/30 02:09:20;;;;;;;37.03;4.13;;;5.80;99.90;;;;;;5048689;28;20092;-79
2022/12/30 02:11:46;;;;;;;28.67;4.50;;;5.80;99.90;;;;;;5034253;28;20401;-79
2022/12/30 02:14:12;;;;;;;37.65;4.53;;;5.50;99.90;;;;;;5035276;28;20099;-79
2022/12/30 02:16:52;;;;;;;37.20;5.35;;;5.50;99.90;;;;;;5035895;28;20128;-83
2022/12/30 02:19:59;;;;;;;35.90;4.70;;;5.60;99.90;;;;;;5051893;28;20048;-81
2022/12/30 02:22:55;;;;;;;36.53;4.40;;;5.60;99.90;;;;;;5069437;28;20483;-80
2022/12/30 02:26:03;;;;;;;28.10;4.28;;;5.80;99.90;;;;;;5028079;28;21417;-81
2022/12/30 02:28:53;;;;;;;35.25;4.82;;;5.50;99.90;;;;;;4971297;28;20089;-81
2022/12/30 02:31:47;;;;;;;38.67;4.78;;;5.50;99.90;;;;;;4981863;28;20145;-83
2022/12/30 02:34:41;;;;;;;33.17;4.20;;;5.80;99.90;;;;;;4994668;28;20104;-83
2022/12/30 02:37:25;;;;;;;34.55;4.13;;;5.60;99.90;;;;;;4959359;28;20050;-83
2022/12/30 02:40:14;;;;;;;35.15;4.43;;;5.80;99.90;;;;;;4959208;28;20117;-82
2022/12/30 02:45:46;;;;;;;33.33;4.35;;;5.60;99.90;;;;;;4974266;28;20054;-83
2022/12/30 02:48:17;;;;;;;34.65;5.05;;;5.60;99.90;;;;;;4961676;28;20049;-80
2022/12/30 02:53:32;;;;;;;31.63;4.93;;;5.30;99.90;;;;;;4971081;28;20435;-82
2022/12/30 02:55:58;;;;;;;34.50;3.85;;;5.60;99.90;;;;;;4966548;28;20043;-79
2022/12/30 02:58:27;;;;;;;30.40;3.88;;;5.60;99.90;;;;;;4980932;28;20061;-80
2022/12/30 03:03:59;;;;;;;31.48;4.03;;;5.10;99.90;;;;;;4984369;28;20038;-79
2022/12/30 03:06:30;;;;;;;35.83;4.10;;;5.40;99.90;;;;;;5023136;28;20045;-80
2022/12/30 03:09:14;;;;;;;30.65;4.00;;;5.50;99.90;;;;;;5026937;28;20069;-82
2022/12/30 03:12:13;;;;;;;23.27;3.20;;;5.30;99.90;;;;;;5029166;28;20494;-78
2022/12/30 03:14:48;;;;;;;22.13;3.58;;;5.00;99.90;;;;;;5027617;28;20041;-78
2022/12/30 03:17:21;;;;;;;39.63;4.00;;;5.00;99.90;;;;;;5030728;28;20190;-83
2022/12/30 03:19:53;;;;;;;36.72;4.65;;;5.20;99.90;;;;;;5030446;28;20040;-79
2022/12/30 03:27:56;;;;;;;30.40;3.72;;;5.20;99.90;;;;;;5045337;28;20060;-83
2022/12/30 03:30:23;;;;;;;40.55;4.50;;;5.20;99.90;;;;;;5027248;28;20049;-79
2022/12/30 03:32:48;;;;;;;39.78;4.60;;;5.10;99.90;;;;;;5029958;28;20039;-84
2022/12/30 03:35:15;;;;;;;38.85;4.63;;;4.80;99.90;;;;;;5029135;28;20112;-79
2022/12/30 03:37:49;;;;;;;37.88;4.30;;;5.20;99.90;;;;;;5011904;28;20037;-81
2022/12/30 03:40:37;;;;;;;33.80;4.07;;;5.10;99.90;;;;;;5024997;28;20100;-79
2022/12/30 03:43:05;;;;;;;40.17;4.32;;;4.70;99.90;;;;;;5016234;28;20033;-81
2022/12/30 03:45:31;;;;;;;25.80;4.20;;;4.80;99.90;;;;;;5027357;28;20040;-80
2022/12/30 03:47:57;;;;;;;29.45;3.95;;;4.90;99.90;;;;;;5029204;28;20037;-81
2022/12/30 03:50:23;;;;;;;31.40;4.45;;;4.80;99.90;;;;;;5034178;28;20061;-81
2022/12/30 03:52:49;;;;;;;46.17;4.57;;;4.70;99.90;;;;;;5026512;28;20044;-79
2022/12/30 03:55:14;;;;;;;30.67;4.50;;;4.50;99.90;;;;;;5037263;28;20037;-80
2022/12/30 03:57:40;;;;;;;39.00;5.03;;;4.90;99.90;;;;;;5012182;28;20403;-79
2022/12/30 04:00:08;;;;;;;29.80;4.28;;;4.80;99.90;;;;;;5029902;28;20356;-81
2022/12/30 04:02:35;;;;;;;31.48;4.35;;;4.70;99.90;;;;;;5028046;28;20373;-82
2022/12/30 04:05:01;;;;;;;27.95;4.43;;;4.80;99.90;;;;;;5041160;28;20511;-79
2022/12/30 04:07:27;;;;;;;36.38;5.43;;;4.40;99.90;;;;;;5025962;28;20045;-80
2022/12/30 04:09:52;;;;;;;40.72;5.72;;;4.50;99.90;;;;;;5013950;28;20045;-81
2022/12/30 04:12:18;;;;;;;35.20;4.57;;;4.90;99.90;;;;;;5029556;28;20029;-82
2022/12/30 04:14:44;;;;;;;31.83;4.22;;;4.50;99.90;;;;;;5030898;28;20120;-83
2022/12/30 04:17:09;;;;;;;36.92;4.25;;;4.90;99.90;;;;;;5026615;28;20068;-84
2022/12/30 04:19:35;;;;;;;27.27;5.38;;;4.50;99.90;;;;;;5014457;28;20044;-77
2022/12/30 04:22:01;;;;;;;29.92;4.55;;;4.90;99.90;;;;;;5060067;28;20419;-84
2022/12/30 04:24:27;;;;;;;29.15;4.07;;;4.70;99.90;;;;;;5030434;28;20041;-82
2022/12/30 04:26:52;;;;;;;36.35;5.00;;;4.60;99.90;;;;;;5027309;28;20044;-80
2022/12/30 04:29:18;;;;;;;34.10;4.22;;;4.80;99.90;;;;;;5010643;28;21852;-81
2022/12/30 04:31:44;;;;;;;31.92;5.00;;;4.90;99.90;;;;;;5031802;28;20055;-83
2022/12/30 04:34:12;;;;;;;27.98;4.63;;;4.70;99.90;;;;;;5034994;28;20071;-81
2022/12/30 04:36:38;;;;;;;34.70;5.20;;;5.10;99.90;;;;;;5052081;28;20045;-80
2022/12/30 04:39:04;;;;;;;34.95;5.38;;;5.20;99.90;;;;;;5033652;28;20399;-83
2022/12/30 04:41:30;;;;;;;25.33;4.13;;;5.20;99.90;;;;;;5032399;28;20048;-83
2022/12/30 04:43:56;;;;;;;37.88;5.00;;;5.20;99.90;;;;;;5067695;28;20037;-78
2022/12/30 04:46:21;;;;;;;35.60;5.18;;;5.30;99.90;;;;;;5061340;28;20079;-77
2022/12/30 04:48:47;;;;;;;30.10;4.93;;;4.90;99.90;;;;;;5061461;28;20124;-81
2022/12/30 04:51:13;;;;;;;34.38;4.82;;;5.20;99.90;;;;;;4996958;28;20477;-79
2022/12/30 04:53:38;;;;;;;28.73;4.15;;;5.00;99.90;;;;;;5022918;28;20056;-80
2022/12/30 04:56:04;;;;;;;28.83;4.07;;;5.00;99.90;;;;;;5036969;28;20045;-82
2022/12/30 04:58:30;;;;;;;21.23;4.43;;;5.10;99.90;;;;;;5025316;28;20468;-78
2022/12/30 05:00:56;;;;;;;33.22;4.13;;;4.80;99.90;;;;;;5010838;28;20064;-84
2022/12/30 05:03:21;;;;;;;28.00;4.72;;;5.10;99.90;;;;;;5054257;28;20041;-80
2022/12/30 05:05:47;;;;;;;28.55;5.30;;;5.20;99.90;;;;;;5032833;28;20045;-79
2022/12/30 05:08:13;;;;;;;27.40;4.95;;;5.10;99.90;;;;;;5066330;28;20430;-78
2022/12/30 05:10:39;;;;;;;30.90;5.75;;;5.00;99.90;;;;;;5062594;28;20045;-85
2022/12/30 05:13:42;;;;;;;30.13;5.47;;;5.20;99.90;;;;;;5033309;28;20056;-83
2022/12/30 05:16:08;;;;;;;24.27;5.40;;;5.00;99.90;;;;;;5049491;28;20056;-79
2022/12/30 05:18:33;;;;;;;29.50;6.28;;;5.50;99.90;;;;;;5062006;28;20040;-80
2022/12/30 05:20:59;;;;;;;30.20;6.25;;;5.10;99.90;;;;;;5052677;28;20062;-79
2022/12/30 05:26:14;;;;;;;31.05;6.47;;;5.30;99.90;;;;;;5056256;28;20496;-80
2022/12/30 05:28:41;;;;;;;27.02;6.68;;;5.30;99.90;;;;;;5025982;28;20124;-79
2022/12/30 05:31:07;;;;;;;30.40;7.32;;;5.30;99.90;;;;;;5022592;28;20037;-81
2022/12/30 05:33:33;;;;;;;31.08;6.97;;;5.30;99.90;;;;;;5042587;28;20040;-80
2022/12/30 05:35:58;;;;;;;26.63;6.95;;;5.70;99.90;;;;;;5053887;28;20037;-84
2022/12/30 05:38:24;;;;;;;33.05;7.57;;;5.70;99.90;;;;;;5051427;28;20478;-78
2022/12/30 05:40:50;;;;;;;34.58;8.07;;;5.40;99.90;;;;;;5046812;28;20374;-78
2022/12/30 05:43:16;;;;;;;29.75;7.15;;;5.30;99.90;;;;;;5052015;28;20048;-78
2022/12/30 05:45:42;;;;;;;20.65;6.30;;;5.70;99.90;;;;;;5051627;28;20066;-82
2022/12/30 05:48:07;;;;;;;28.58;6.60;;;5.80;99.90;;;;;;5061451;28;20112;-83
2022/12/30 05:50:33;;;;;;;24.73;6.40;;;5.70;99.90;;;;;;5042910;28;20159;-83
2022/12/30 05:52:59;;;;;;;25.13;6.78;;;5.40;99.90;;;;;;5016721;28;20053;-80
2022/12/30 05:55:24;;;;;;;31.95;7.15;;;5.60;99.90;;;;;;5018172;28;20042;-79
2022/12/30 05:57:50;;;;;;;25.15;6.93;;;5.50;99.90;;;;;;5019677;28;20076;-79
2022/12/30 06:00:16;;;;;;;32.25;7.00;;;5.50;99.90;;;;;;5053450;28;20038;-81
2022/12/30 06:02:41;;;;;;;26.58;7.40;;;5.30;99.90;;;;;;5071988;28;20506;-83
2022/12/30 06:05:08;;;;;;;25.63;7.55;;;5.30;99.90;;;;;;5056678;28;20041;-83
2022/12/30 06:07:33;;;;;;;26.65;6.93;;;5.40;99.90;;;;;;5066993;28;20048;-83
2022/12/30 06:09:59;;;;;;;33.03;6.93;;;5.30;99.90;;;;;;5018926;28;20036;-79
2022/12/30 06:12:25;;;;;;;25.05;6.75;;;5.40;99.90;;;;;;5051781;28;20044;-83
2022/12/30 06:15:09;;;;;;;25.00;6.32;;;5.20;99.90;;;;;;5036825;28;20048;-81
2022/12/30 06:17:35;;;;;;;29.77;6.43;;;5.40;99.90;;;;;;5056073;28;20471;-82
2022/12/30 06:20:00;;;;;;;20.13;5.30;;;5.00;99.90;;;;;;5049593;28;20041;-82
2022/12/30 06:22:26;;;;;;;29.08;6.07;;;5.00;99.90;;;;;;5036990;28;20040;-81
2022/12/30 06:24:51;;;;;;;28.80;5.38;;;5.10;99.90;;;;;;5072159;28;20456;-79
2022/12/30 06:27:17;;;;;;;26.55;4.10;;;5.10;99.90;;;;;;5033375;28;20037;-81
2022/12/30 06:29:43;;;;;;;34.45;5.32;;;4.80;99.90;;;;;;5054083;28;20356;-79
2022/12/30 06:32:08;;;;;;;25.58;4.95;;;4.70;99.90;;;;;;5041553;28;20349;-82
2022/12/30 06:34:34;;;;;;;23.42;4.55;;;5.00;99.90;;;;;;5033922;28;20568;-78
2022/12/30 06:37:00;;;;;;;33.92;5.38;;;5.00;99.90;;;;;;5036368;28;20064;-84
2022/12/30 06:39:25;;;;;;;20.90;4.68;;;5.00;99.90;;;;;;5034843;28;20090;-81
2022/12/30 06:41:51;;;;;;;25.50;4.85;;;4.80;99.90;;;;;;4998135;28;20132;-82
2022/12/30 06:44:17;;;;;;;20.60;4.20;;;4.50;99.90;;;;;;5010941;28;20037;-80
2022/12/30 06:46:42;;;;;;;24.55;4.70;;;4.30;99.90;;;;;;5026525;28;20067;-78
2022/12/30 06:49:08;;;;;;;26.92;4.85;;;4.80;99.90;;;;;;5019268;28;20462;-80
2022/12/30 06:51:34;;;;;;;18.25;4.13;;;4.70;99.90;;;;;;5019739;28;20057;-79
2022/12/30 06:53:59;;;;;;;29.10;4.45;;;4.50;99.90;;;;;;5020360;28;20060;-78
2022/12/30 06:56:25;;;;;;;29.85;4.10;;;4.80;99.90;;;;;;5037994;28;20098;-82
2022/12/30 06:58:51;;;;;;;20.33;4.13;;;4.80;99.90;;;;;;5042441;28;20055;-79
2022/12/30 07:01:17;;;;;;;24.15;4.47;;;4.50;99.90;;;;;;5033630;28;20041;-78
2022/12/30 07:03:42;;;;;;;25.05;4.22;;;4.70;99.90;;;;;;5052631;28;20041;-81
2022/12/30 07:06:08;;;;;;;21.25;3.72;;;4.50;99.90;;;;;;5030763;28;20049;-80
2022/12/30 07:08:33;;;;;;;29.08;4.90;;;4.40;99.90;;;;;;5046367;28;20079;-81
2022/12/30 07:10:59;;;;;;;25.67;4.60;;;4.50;99.90;;;;;;5011589;28;20084;-84
2022/12/30 07:13:26;;;;;;;22.45;4.03;;;4.60;99.90;;;;;;5013500;28;20087;-80
2022/12/30 07:15:52;;;;;;;21.25;4.03;;;4.50;99.90;;;;;;5028881;28;20059;-81
2022/12/30 07:18:17;;;;;;;23.10;4.30;;;4.60;99.90;;;;;;5011695;28;21347;-78
2022/12/30 07:20:43;;;;;;;18.08;3.78;;;4.30;99.90;;;;;;5011863;28;20049;-80
2022/12/30 07:23:09;;;;;;;21.42;4.45;;;4.50;99.90;;;;;;5005697;28;20067;-80
2022/12/30 07:25:35;;;;;;;20.30;4.05;;;4.50;99.90;;;;;;5005529;28;20045;-80
2022/12/30 07:28:04;;;;;;;20.85;3.72;;;4.60;99.90;;;;;;5022158;28;20427;-80
2022/12/30 07:30:31;;;;;;;20.45;3.38;;;4.50;99.90;;;;;;5004977;28;20118;-80
2022/12/30 07:32:57;;;;;;;22.10;3.75;;;4.20;99.90;;;;;;5022930;28;20044;-79
2022/12/30 07:35:23;;;;;;;17.60;3.78;;;4.20;99.90;;;;;;5010178;28;20392;-81
2022/12/30 07:37:50;;;;;;;20.60;3.60;;;4.40;99.90;;;;;;5055675;28;20065;-85
2022/12/30 07:40:16;;;;;;;19.52;3.65;;;4.30;99.90;;;;;;5022867;28;20059;-77
2022/12/30 07:42:42;;;;;;;29.38;3.97;;;4.60;99.90;;;;;;5055979;28;20049;-80
2022/12/30 07:45:08;;;;;;;23.73;4.10;;;4.40;99.90;;;;;;5027207;28;20063;-83
2022/12/30 07:47:34;;;;;;;16.83;3.45;;;4.30;99.90;;;;;;5030565;28;20060;-83
2022/12/30 07:50:01;;;;;;;23.50;3.67;;;4.10;99.90;;;;;;5027530;28;20181;-79
2022/12/30 07:52:27;;;;;;;28.75;3.80;;;4.10;99.90;;;;;;5011055;28;20057;-76
2022/12/30 07:54:52;;;;;;;20.70;3.67;;;4.50;99.90;;;;;;5010880;28;20384;-78
2022/12/30 07:57:18;;;;;;;30.25;4.20;;;4.20;99.90;;;;;;4991337;28;20491;-80
2022/12/30 07:59:44;;;;;;;23.92;3.65;;;4.50;99.90;;;;;;5023414;28;20551;-79
2022/12/30 08:02:13;;;;;;;19.90;3.50;;;4.30;99.90;;;;;;5037530;28;20147;-78
2022/12/30 08:04:38;;;;;;;18.30;3.33;;;4.50;99.90;;;;;;5055275;28;20037;-79
2022/12/30 08:07:04;;;;;;;20.90;3.35;;;4.50;99.90;;;;;;5012615;28;20040;-78
2022/12/30 08:09:30;;;;;;;24.77;3.88;;;4.10;99.90;;;;;;5013229;28;20052;-77
2022/12/30 08:11:56;;;;;;;25.33;4.03;;;4.30;99.90;;;;;;5025266;28;20175;-76
2022/12/30 08:14:22;;;;;;;30.27;3.60;;;4.30;99.90;;;;;;5060039;28;20124;-79
2022/12/30 08:16:47;;;;;;;21.33;3.53;;;4.40;99.90;;;;;;5028564;28;20045;-78
2022/12/30 08:19:13;;;;;;;18.63;3.60;;;4.50;99.90;;;;;;5028559;28;20114;-76
2022/12/30 08:21:39;;;;;;;25.63;4.20;;;4.30;99.90;;;;;;4999796;28;20460;-78
2022/12/30 08:24:05;;;;;;;17.65;3.72;;;4.30;99.90;;;;;;5032120;28;20041;-78
2022/12/30 08:26:30;;;;;;;27.33;4.13;;;4.50;99.90;;;;;;5015102;28;20068;-81
2022/12/30 08:28:56;;;;;;;20.92;3.60;;;4.60;99.90;;;;;;5023759;28;20528;-78
2022/12/30 08:31:25;;;;;;;24.08;3.90;;;4.30;99.90;;;;;;5044140;28;20037;-78
2022/12/30 08:33:52;;;;;;;21.17;4.18;;;4.60;99.90;;;;;;5029735;28;20160;-77
2022/12/30 08:36:22;;;;;;;25.67;4.45;;;4.50;99.90;;;;;;5006586;28;20131;-79
2022/12/30 08:38:51;;;;;;;22.17;3.75;;;4.30;99.90;;;;;;5025861;28;20477;-79
2022/12/30 08:41:23;;;;;;;29.25;3.78;;;4.70;99.90;;;;;;5022864;28;20044;-79
2022/12/30 08:43:50;;;;;;;19.35;3.22;;;4.80;99.90;;;;;;5023498;28;20045;-82
2022/12/30 08:46:17;;;;;;;21.27;3.55;;;4.40;99.90;;;;;;5056621;28;20075;-80
2022/12/30 08:48:43;;;;;;;22.73;3.58;;;4.80;99.90;;;;;;5038317;28;20641;-78
2022/12/30 08:51:09;;;;;;;23.42;3.60;;;4.70;99.90;;;;;;5043411;28;20057;-81
2022/12/30 08:53:35;;;;;;;20.15;3.60;;;4.80;99.90;;;;;;5056834;28;20053;-77
2022/12/30 08:56:14;;;;;;;29.88;4.07;;;4.90;99.90;;;;;;5011936;28;20052;-78
2022/12/30 08:58:39;;;;;;;25.58;4.20;;;4.60;99.90;;;;;;5007000;28;20076;-78
2022/12/30 09:01:09;;;;;;;26.83;4.10;;;4.90;99.90;;;;;;5011996;28;20049;-78
2022/12/30 09:03:41;;;;;;;27.30;4.05;;;4.90;99.90;;;;;;5026624;28;20056;-78
2022/12/30 09:06:08;;;;;;;28.73;4.00;;;4.80;99.90;;;;;;5058522;28;20052;-76
2022/12/30 09:08:35;;;;;;;19.35;3.65;;;5.00;99.90;;;;;;5028000;28;20384;-79
2022/12/30 09:11:10;;;;;;;19.85;3.75;;;4.70;99.90;;;;;;5024699;28;20118;-76
2022/12/30 09:13:36;;;;;;;20.15;3.33;;;4.80;99.90;;;;;;5031160;28;20045;-80
2022/12/30 09:16:04;;;;;;;20.83;3.55;;;5.10;99.90;;;;;;5027657;28;20102;-75
2022/12/30 09:18:30;;;;;;;23.92;3.72;;;5.20;99.90;;;;;;5054541;28;20076;-78
2022/12/30 09:20:55;;;;;;;26.25;3.90;;;4.90;99.90;;;;;;5029415;28;20369;-81
2022/12/30 09:23:21;;;;;;;17.27;3.45;;;5.10;99.90;;;;;;5029059;28;20041;-79
2022/12/30 09:25:47;;;;;;;20.00;3.35;;;5.00;99.90;;;;;;5025883;28;20158;-79
2022/12/30 09:28:13;;;;;;;23.10;3.50;;;4.90;99.90;;;;;;5047116;28;20035;-77
2022/12/30 09:30:39;;;;;;;27.35;3.80;;;5.20;99.90;;;;;;5044432;28;20383;-77
2022/12/30 09:33:05;;;;;;;22.00;4.10;;;5.20;99.90;;;;;;5009344;28;20153;-79
2022/12/30 09:35:31;;;;;;;24.65;3.40;;;5.30;99.90;;;;;;5028173;28;20057;-77
2022/12/30 09:37:56;;;;;;;17.77;3.28;;;5.00;99.90;;;;;;5028484;28;20052;-79
2022/12/30 09:40:57;;;;;;;26.80;3.70;;;5.30;99.90;;;;;;5045997;28;20055;-76
2022/12/30 09:43:36;;;;;;;20.05;3.47;;;5.40;99.90;;;;;;5037167;28;20045;-80
2022/12/30 09:46:29;;;;;;;24.33;4.03;;;5.40;99.90;;;;;;5056817;28;20502;-78
2022/12/30 09:49:03;;;;;;;12.48;3.53;;;5.30;99.90;;;;;;5026585;28;20060;-79
2022/12/30 09:51:44;;;;;;;15.50;3.13;;;5.50;99.90;;;;;;5022370;28;20049;-81
2022/12/30 09:54:17;;;;;;;20.55;3.42;;;5.30;99.90;;;;;;5026074;28;20444;-81
2022/12/30 09:56:47;;;;;;;20.33;3.53;;;5.50;99.90;;;;;;5045516;28;20045;-79
2022/12/30 09:59:32;;;;;;;19.08;3.58;;;5.70;99.90;;;;;;5013338;28;20056;-82
2022/12/30 10:02:17;;;;;;;19.08;3.60;;;5.60;99.90;;;;;;5034823;28;20056;-80
2022/12/30 10:04:43;;;;;;;19.23;3.30;;;5.50;99.90;;;;;;5009065;28;20152;-80
2022/12/30 10:07:21;;;;;;;14.30;3.35;;;5.60;99.90;;;;;;5044573;28;20045;-82
2022/12/30 10:09:46;;;;;;;15.88;2.90;;;5.70;99.90;;;;;;5029242;28;20048;-79
2022/12/30 10:12:48;;;;;;;18.92;3.30;;;5.70;99.90;;;;;;5012086;28;20362;-78
2022/12/30 10:15:53;;;;;;;15.77;3.00;;;5.90;99.90;;;;;;5029652;28;20091;-78
2022/12/30 10:18:36;;;;;;;21.02;3.80;;;5.70;99.90;;;;;;5069192;28;20472;-77
2022/12/30 10:21:10;;;;;;;17.20;3.20;;;5.80;99.90;;;;;;5053473;28;20063;-78
2022/12/30 10:23:39;;;;;;;17.05;3.10;;;5.80;99.90;;;;;;5033854;28;20338;-78
2022/12/30 10:26:09;;;;;;;25.45;3.67;;;6.10;99.90;;;;;;5041450;28;20041;-78
2022/12/30 10:29:15;;;;;;;18.42;3.13;;;5.90;99.90;;;;;;5036536;28;20053;-82
2022/12/30 10:31:44;;;;;;;13.73;2.30;;;6.10;99.90;;;;;;5000390;28;20562;-82
2022/12/30 10:34:10;;;;;;;14.07;2.58;;;6.20;99.90;;;;;;4984961;28;20387;-79
2022/12/30 10:36:43;;;;;;;11.55;2.83;;;6.00;99.90;;;;;;4987732;28;20109;-79
2022/12/30 10:39:34;;;;;;;12.40;2.67;;;6.00;99.90;;;;;;4990672;28;20057;-79
2022/12/30 10:42:18;;;;;;;16.23;2.80;;;6.10;99.90;;;;;;4927473;29;20139;-78
2022/12/30 10:44:55;;;;;;;13.77;2.67;;;6.20;99.90;;;;;;4915067;29;20099;-79
2022/12/30 10:47:44;;;;;;;17.48;3.47;;;6.40;99.90;;;;;;4910858;29;20393;-80
2022/12/30 10:50:24;;;;;;;14.05;2.95;;;6.20;99.90;;;;;;4910392;29;20119;-82
2022/12/30 10:52:51;;;;;;;13.02;2.78;;;6.30;99.90;;;;;;4908608;29;20052;-80
2022/12/30 10:55:24;;;;;;;15.55;2.83;;;6.50;99.90;;;;;;4912945;29;20162;-77
2022/12/30 10:57:56;;;;;;;13.15;2.63;;;6.60;99.90;;;;;;4929809;29;20043;-80
2022/12/30 11:00:23;;;;;;;14.18;2.53;;;6.70;99.90;;;;;;4895520;29;20055;-78
2022/12/30 11:03:03;;;;;;;13.20;2.72;;;6.60;99.90;;;;;;4915514;29;20047;-79
2022/12/30 11:05:39;;;;;;;13.50;2.40;;;6.50;99.90;;;;;;4914691;28;20083;-77
2022/12/30 11:08:19;;;;;;;15.60;2.63;;;6.50;99.90;;;;;;4952503;28;20054;-77
2022/12/30 11:10:59;;;;;;;11.55;2.80;;;6.60;99.90;;;;;;4947704;28;20047;-83
2022/12/30 11:16:11;;;;;;;12.73;2.42;;;6.40;99.90;;;;;;4945332;28;20039;-79
2022/12/30 11:18:37;;;;;;;10.20;2.28;;;6.60;99.90;;;;;;4966519;28;20094;-79
2022/12/30 11:21:06;;;;;;;11.88;2.13;;;6.60;99.90;;;;;;5027578;28;20109;-80
2022/12/30 11:23:38;;;;;;;12.07;2.40;;;6.60;99.90;;;;;;5019028;28;20091;-79
2022/12/30 11:26:07;;;;;;;11.52;2.17;;;6.70;99.90;;;;;;5059366;28;20040;-80
2022/12/30 11:28:42;;;;;;;16.77;2.03;;;6.50;99.90;;;;;;5057493;28;20067;-78
2022/12/30 11:31:09;;;;;;;;;;;6.60;99.90;;;;;;5025461;28;20373;-78
2022/12/30 11:33:54;;;;;;;11.25;1.80;;;6.80;99.90;;;;;;5018944;28;19924;-79
2022/12/30 11:36:21;;;;;;;13.90;2.63;;;6.60;99.90;;;;;;5004998;28;20079;-80
2022/12/30 11:38:49;;;;;;;9.50;2.25;;;6.70;99.90;;;;;;5010071;28;20088;-77
2022/12/30 11:41:18;;;;;;;10.90;2.22;;;6.80;99.90;;;;;;5024834;28;20041;-80
2022/12/30 11:43:45;;;;;;;9.60;1.92;;;6.80;99.90;;;;;;5024212;28;20049;-81
2022/12/30 11:46:14;;;;;;;13.43;2.15;;;6.80;99.90;;;;;;5033539;28;20057;-77
2022/12/30 11:48:45;;;;;;;11.60;2.13;;;7.00;99.90;;;;;;5037621;28;20063;-79
2022/12/30 11:51:24;;;;;;;8.32;1.70;;;6.90;99.90;;;;;;5026737;28;20059;-79
2022/12/30 11:54:12;;;;;;;9.30;1.75;;;6.90;99.90;;;;;;5023529;28;20048;-79
2022/12/30 11:56:50;;;;;;;10.82;1.90;;;7.10;99.90;;;;;;5006061;28;20053;-81
2022/12/30 11:59:19;;;;;;;9.82;1.95;;;7.00;99.90;;;;;;5016753;28;20098;-78
2022/12/30 12:01:48;;;;;;;7.97;1.70;;;7.00;99.90;;;;;;5021643;28;20037;-77
2022/12/30 12:04:38;;;;;;;13.25;2.03;;;7.10;99.90;;;;;;5057189;28;20052;-79
2022/12/30 12:07:19;;;;;;;10.77;1.90;;;7.10;99.90;;;;;;5053597;28;20110;-77
2022/12/30 12:10:30;;;;;;;13.68;1.90;;;7.20;99.90;;;;;;5022980;28;20091;-79
2022/12/30 12:13:00;;;;;;;7.45;1.70;;;7.20;99.90;;;;;;4977512;28;20473;-77
2022/12/30 12:15:43;;;;;;;10.55;2.28;;;7.30;99.90;;;;;;4964161;28;20580;-77
2022/12/30 12:18:27;;;;;;;7.13;1.73;;;7.30;99.90;;;;;;4966118;28;20103;-79
2022/12/30 12:21:08;;;;;;;6.88;2.25;;;7.40;99.90;;;;;;4981297;28;20177;-82
2022/12/30 12:23:43;;;;;;;8.18;1.80;;;7.40;99.90;;;;;;4966488;28;20046;-81
2022/12/30 12:26:23;;;;;;;12.48;1.98;;;7.40;99.90;;;;;;4983390;28;20349;-77
2022/12/30 12:28:52;;;;;;;11.77;2.03;;;7.50;99.90;;;;;;4953206;28;20078;-79
2022/12/30 12:31:43;;;;;;;8.40;1.88;;;7.40;99.90;;;;;;4955222;28;20054;-76
2022/12/30 12:34:23;;;;;;;12.48;2.00;;;7.40;99.90;;;;;;4998905;28;20049;-78
2022/12/30 12:36:55;;;;;;;10.05;1.95;;;7.40;99.90;;;;;;4979269;28;20047;-78
2022/12/30 12:39:56;;;;;;;8.23;1.70;;;7.40;99.90;;;;;;4978626;28;20097;-78
2022/12/30 12:42:34;;;;;;;9.25;1.92;;;7.50;99.90;;;;;;4962033;28;20054;-75
2022/12/30 12:45:23;;;;;;;8.48;1.60;;;7.60;99.90;;;;;;4949137;28;20142;-78
2022/12/30 12:48:10;;;;;;;7.63;1.85;;;7.50;99.90;;;;;;5011221;28;20045;-77
2022/12/30 12:51:09;;;;;;;7.75;1.70;;;7.60;99.90;;;;;;5033837;28;20076;-76
2022/12/30 12:53:53;;;;;;;6.65;1.73;;;7.60;99.90;;;;;;5040708;28;20109;-79
2022/12/30 12:56:46;;;;;;;5.70;1.30;;;7.70;99.90;;;;;;5023716;28;20456;-78
2022/12/30 12:59:33;;;;;;;8.60;1.65;;;7.70;99.90;;;;;;5011106;28;20040;-81
2022/12/30 13:02:05;;;;;;;7.22;1.67;;;7.70;99.90;;;;;;5057183;28;20090;-79
2022/12/30 13:04:43;;;;;;;9.00;1.73;;;7.80;99.90;;;;;;5027923;28;20045;-78
2022/12/30 13:07:30;;;;;;;8.40;1.50;;;7.80;99.90;;;;;;5021769;28;20045;-80
2022/12/30 13:10:21;;;;;;;9.48;1.60;;;7.80;99.90;;;;;;5023250;28;20200;-80
2022/12/30 13:13:03;;;;;;;8.65;1.48;;;7.80;99.90;;;;;;5034846;28;20088;-77
2022/12/30 13:15:40;;;;;;;6.95;1.75;;;7.80;99.90;;;;;;5022701;28;20041;-78
2022/12/30 13:18:13;;;;;;;11.18;1.80;;;7.80;99.90;;;;;;5028597;28;20036;-78
2022/12/30 13:20:59;;;;;;;10.30;1.92;;;7.90;99.90;;;;;;5043666;28;20472;-77
2022/12/30 13:23:33;;;;;;;7.35;2.13;;;7.90;99.90;;;;;;5040504;28;20052;-79
2022/12/30 13:26:04;;;;;;;7.20;1.77;;;7.80;99.90;;;;;;5060128;28;20518;-79
2022/12/30 13:28:33;;;;;;;9.93;2.50;;;7.80;99.90;;;;;;5027568;28;20478;-76
2022/12/30 13:31:14;;;;;;;7.60;1.92;;;7.80;99.90;;;;;;5026088;28;20065;-79
2022/12/30 13:34:13;;;;;;;11.57;2.28;;;7.90;99.90;;;;;;5024091;28;20065;-78
2022/12/30 13:36:48;;;;;;;9.70;1.80;;;7.90;99.90;;;;;;5035500;28;20033;-79
2022/12/30 13:39:26;;;;;;;8.07;2.05;;;8.00;99.90;;;;;;5036503;28;20072;-76
2022/12/30 13:42:24;;;;;;;8.88;2.53;;;8.00;99.90;;;;;;5003087;28;20067;-80
2022/12/30 13:44:50;;;;;;;9.90;2.10;;;8.00;99.90;;;;;;4968178;28;20050;-78
2022/12/30 13:47:21;;;;;;;8.98;1.95;;;8.10;99.90;;;;;;5000702;28;20133;-77
2022/12/30 13:49:48;;;;;;;11.52;2.03;;;8.10;99.90;;;;;;4985522;28;20065;-81
2022/12/30 13:52:23;;;;;;;10.20;1.92;;;8.10;99.90;;;;;;4989223;28;20048;-76
2022/12/30 13:54:52;;;;;;;;;;;8.20;99.90;;;;;;4974224;28;20113;-81
2022/12/30 13:57:36;;;;;;;9.15;2.00;;;8.20;99.90;;;;;;5002836;28;20406;-81
2022/12/30 14:00:14;;;;;;;8.57;2.00;;;8.20;99.90;;;;;;5001013;28;20209;-78
2022/12/30 14:03:38;;;;;;;10.80;2.00;;;8.20;99.90;;;;;;4969111;28;20054;-77